King Salmon, AK

4:26 AM AKST on March 03, 2015 (GMT -0900)
Port Heiden | Change Station
CLOSE
Current Station
Airport
Location: Port Heiden,
Elevation: 95 ft
Nearby Weather Stations

Elev 95 ft 56.96 °N, 158.63 °W | Updated 10 minutes ago

Overcast
Overcast
37 °F
Feels Like 34 °F
N
5
Wind Variable Wind from SSE

Today
High -- | Low -- °F
--% Chance of Precip.
Yesterday
High -- | Low -- °F
Precip. -- in
8:22 AM 7:11 PM
Waxing Gibbous, 96% visible
Pressure 29.86 in
Visibility 10.0 miles
Clouds Overcast 1800 ft
Windchill 34 °F
Dew Point 28 °F
Humidity 70%
Rainfall 0.00 in
Snow Depth Not available.
UV 0 out of 12
Pollen Not available.
Air Quality Not available.
Flu Activity Not available.
METAR PAPH 031316Z AUTO 16004KT 10SM OVC018 03/M02 A2986 RMK AO1

More Conditions Fewer Conditions

Pressure 29.86 in
Visibility 10.0 miles
Clouds Overcast 1800 ft
Windchill 34 °F
Dew Point 28 °F
Humidity 70%
Rainfall 0.00 in
Snow Depth Not available.
UV 0 out of 12
Pollen Not available.
Air Quality Not available.
Flu Activity Not available.
METAR PAPH 031316Z AUTO 16004KT 10SM OVC018 03/M02 A2986 RMK AO1

More Conditions Fewer Conditions

10-Day Weather Forecast

Almanac

Astronomy

Mar. 03, 2015 Rise Set
Actual Time
Civil Twilight
Nautical Twilight
Astronomical Twilight
Moon
Length of Visible Light
Length of Day
Tomorrow will be .
, % of the Moon is Illuminated

Today's Extremes

State Highs State Lows

Community

WunderPhotos

Upload Photos

1,802,100 photos uploaded!

WunderBlogs® & News

Nearby

Air Quality

  Air Quality AQ Index Pollutant
Not available.

Snow Depth

Station Depth Elevation

Earthquake Activity

City Distance Mag. Time & Date
Minimum magnitude displayed is 2.5.

Coastal Water Temperatures

Place Temperature

Nearby Weather Stations